Time;durP1;ratioP1;P1;durP2;ratioP2;P2;SDS_P1;SDS_P2;PMS_P1;PMS_P2;Temp;Humidity;BMP_temperature;BMP_pressure;BME280_temperature;BME280_humidity;BME280_pressure;Samples;Min_cycle;Max_cycle;Signal;HPM_P1;HPM_P2
2022/03/20 00:01:43;;;;;;;11.23;5.20;;;;;;;;;;5071614;28;20048;-71
2022/03/20 00:04:09;;;;;;;13.40;5.40;;;;;;;;;;5071994;28;20669;-71
2022/03/20 00:06:35;;;;;;;10.20;5.88;;;;;;;;;;5069417;28;20052;-71
2022/03/20 00:09:01;;;;;;;12.40;5.55;;;;;;;;;;5071473;28;20044;-71
2022/03/20 00:11:28;;;;;;;9.73;5.15;;;;;;;;;;5071163;28;20119;-71
2022/03/20 00:13:54;;;;;;;8.32;5.40;;;;;;;;;;5069457;28;20045;-71
2022/03/20 00:16:23;;;;;;;8.90;4.97;;;;;;;;;;5071292;28;20041;-71
2022/03/20 00:18:49;;;;;;;12.32;5.15;;;;;;;;;;5068341;28;20037;-71
2022/03/20 00:21:15;;;;;;;9.23;5.10;;;;;;;;;;5053253;28;20405;-71
2022/03/20 00:23:44;;;;;;;9.10;5.47;;;;;;;;;;5104310;28;20052;-71
2022/03/20 00:26:10;;;;;;;10.07;5.07;;;;;;;;;;5096878;28;20060;-71
2022/03/20 00:28:36;;;;;;;8.63;5.25;;;;;;;;;;5049676;28;20045;-71
2022/03/20 00:31:02;;;;;;;11.25;5.07;;;;;;;;;;5051224;28;20048;-71
2022/03/20 00:33:28;;;;;;;9.45;5.07;;;;;;;;;;5051191;28;20514;-71
2022/03/20 00:35:55;;;;;;;8.65;5.40;;;;;;;;;;5068230;28;20043;-71
2022/03/20 00:38:21;;;;;;;12.27;5.43;;;;;;;;;;5071417;28;20119;-71
2022/03/20 00:40:48;;;;;;;9.90;4.88;;;;;;;;;;5071223;28;20132;-71
2022/03/20 00:43:14;;;;;;;7.32;4.72;;;;;;;;;;5070736;28;20441;-71
2022/03/20 00:45:40;;;;;;;9.55;5.45;;;;;;;;;;5071217;28;20048;-71
2022/03/20 00:48:08;;;;;;;11.93;6.07;;;;;;;;;;5071543;28;20044;-71
2022/03/20 00:50:35;;;;;;;9.60;4.65;;;;;;;;;;5103143;28;20048;-71
2022/03/20 00:53:01;;;;;;;8.88;5.47;;;;;;;;;;5071124;28;20066;-71
2022/03/20 00:55:29;;;;;;;8.30;5.25;;;;;;;;;;5071342;28;20052;-71
2022/03/20 00:57:55;;;;;;;8.70;5.20;;;;;;;;;;5069598;28;20045;-71
2022/03/20 01:00:21;;;;;;;11.05;5.70;;;;;;;;;;5071334;28;20040;-71
2022/03/20 01:02:47;;;;;;;12.18;6.03;;;;;;;;;;5071404;28;20051;-71
2022/03/20 01:05:14;;;;;;;12.90;5.47;;;;;;;;;;5070732;28;20047;-71
2022/03/20 01:07:40;;;;;;;12.77;6.00;;;;;;;;;;5071274;28;20072;-71
2022/03/20 01:10:07;;;;;;;9.30;5.00;;;;;;;;;;5071315;28;20037;-71
2022/03/20 01:12:33;;;;;;;10.95;5.43;;;;;;;;;;5070725;28;20120;-71
2022/03/20 01:15:00;;;;;;;9.93;5.38;;;;;;;;;;5071153;28;20115;-71
2022/03/20 01:17:26;;;;;;;8.00;5.22;;;;;;;;;;5071111;28;20086;-71
2022/03/20 01:19:52;;;;;;;11.40;5.57;;;;;;;;;;5070181;28;20051;-71
2022/03/20 01:22:18;;;;;;;10.95;6.00;;;;;;;;;;5069575;28;20063;-71
2022/03/20 01:24:45;;;;;;;10.60;5.13;;;;;;;;;;5071120;28;20484;-71
2022/03/20 01:27:12;;;;;;;12.10;5.35;;;;;;;;;;5069994;28;20589;-71
2022/03/20 01:29:38;;;;;;;10.98;5.63;;;;;;;;;;5103309;28;20063;-71
2022/03/20 01:32:05;;;;;;;10.65;5.80;;;;;;;;;;5071041;28;20044;-71
2022/03/20 01:34:31;;;;;;;10.63;5.93;;;;;;;;;;5070069;28;20098;-71
2022/03/20 01:36:58;;;;;;;12.00;5.82;;;;;;;;;;5070815;28;20037;-71
2022/03/20 01:39:24;;;;;;;10.95;5.65;;;;;;;;;;5071006;28;20068;-71
2022/03/20 01:41:50;;;;;;;13.15;5.97;;;;;;;;;;5102720;28;20838;-71
2022/03/20 01:44:16;;;;;;;10.88;6.00;;;;;;;;;;5070888;28;20040;-71
2022/03/20 01:46:43;;;;;;;13.75;5.88;;;;;;;;;;5070892;28;20066;-71
2022/03/20 01:49:09;;;;;;;11.10;6.60;;;;;;;;;;5070035;28;20117;-71
2022/03/20 01:54:21;;;;;;;9.98;5.40;;;;;;;;;;5071723;28;20040;-71
2022/03/20 01:56:51;;;;;;;13.18;6.00;;;;;;;;;;5073404;28;20094;-71
2022/03/20 01:59:17;;;;;;;13.73;6.50;;;;;;;;;;5074497;28;20047;-71
2022/03/20 02:01:44;;;;;;;10.73;6.28;;;;;;;;;;5074275;28;20047;-71
2022/03/20 02:04:14;;;;;;;11.00;6.32;;;;;;;;;;5073651;28;20045;-71
2022/03/20 02:06:41;;;;;;;10.25;6.05;;;;;;;;;;5074134;28;20101;-71
2022/03/20 02:09:07;;;;;;;14.93;6.65;;;;;;;;;;5074070;28;20430;-71
2022/03/20 02:11:33;;;;;;;13.57;6.15;;;;;;;;;;5073098;28;20543;-71
2022/03/20 02:14:00;;;;;;;13.75;6.38;;;;;;;;;;5074367;28;20041;-71
2022/03/20 02:16:26;;;;;;;11.52;6.47;;;;;;;;;;5074018;28;20469;-71
2022/03/20 02:18:54;;;;;;;14.10;6.70;;;;;;;;;;5073119;28;20131;-71
2022/03/20 02:21:40;;;;;;;12.27;6.05;;;;;;;;;;5074090;28;20531;-71
2022/03/20 02:24:25;;;;;;;12.63;6.00;;;;;;;;;;5073861;28;20090;-71
2022/03/20 02:26:51;;;;;;;13.15;6.47;;;;;;;;;;5072488;28;20076;-71
2022/03/20 02:29:17;;;;;;;14.63;6.72;;;;;;;;;;5073565;28;20068;-71
2022/03/20 02:31:43;;;;;;;13.90;6.93;;;;;;;;;;5073779;28;20102;-71
2022/03/20 02:34:10;;;;;;;15.38;7.22;;;;;;;;;;5073059;28;20478;-71
2022/03/20 02:36:36;;;;;;;10.40;6.68;;;;;;;;;;5073549;28;20032;-71
2022/03/20 02:39:03;;;;;;;17.55;7.15;;;;;;;;;;5073719;28;20051;-71
2022/03/20 02:41:30;;;;;;;14.07;7.43;;;;;;;;;;5072935;28;20131;-71
2022/03/20 02:44:02;;;;;;;11.38;6.70;;;;;;;;;;5073537;28;20037;-71
2022/03/20 02:46:31;;;;;;;11.00;6.90;;;;;;;;;;5072170;28;20051;-71
2022/03/20 02:48:58;;;;;;;12.13;6.85;;;;;;;;;;5072725;28;20044;-71
2022/03/20 02:51:24;;;;;;;12.05;7.30;;;;;;;;;;5073279;28;20399;-71
2022/03/20 02:53:50;;;;;;;13.20;7.90;;;;;;;;;;5073068;28;20052;-71
2022/03/20 02:56:16;;;;;;;14.95;7.28;;;;;;;;;;5072511;28;20540;-71
2022/03/20 02:58:42;;;;;;;14.40;7.28;;;;;;;;;;5072958;28;20045;-71
2022/03/20 03:01:08;;;;;;;13.75;7.15;;;;;;;;;;5071509;28;20052;-71
2022/03/20 03:03:34;;;;;;;15.68;8.32;;;;;;;;;;5072539;28;20041;-71
2022/03/20 03:06:06;;;;;;;11.55;7.30;;;;;;;;;;5072703;28;20047;-71
2022/03/20 03:11:18;;;;;;;14.32;7.55;;;;;;;;;;5072302;28;20130;-70
2022/03/20 03:13:44;;;;;;;13.35;7.78;;;;;;;;;;5071652;28;20049;-70
2022/03/20 03:16:11;;;;;;;12.88;7.68;;;;;;;;;;5072755;28;20040;-71
2022/03/20 03:18:39;;;;;;;12.10;8.20;;;;;;;;;;5072118;28;20040;-71
2022/03/20 03:21:05;;;;;;;14.43;9.07;;;;;;;;;;5071346;28;20048;-71
2022/03/20 03:23:31;;;;;;;16.23;8.90;;;;;;;;;;5072364;28;20037;-71
2022/03/20 03:25:58;;;;;;;14.70;8.15;;;;;;;;;;5071837;28;21019;-71
2022/03/20 03:28:32;;;;;;;14.68;8.35;;;;;;;;;;5072257;28;20142;-71
2022/03/20 03:30:58;;;;;;;16.77;9.25;;;;;;;;;;5072065;28;20525;-71
2022/03/20 03:33:24;;;;;;;16.83;8.93;;;;;;;;;;5071896;28;20372;-71
2022/03/20 03:35:57;;;;;;;18.75;9.35;;;;;;;;;;5072547;28;20044;-71
2022/03/20 03:38:23;;;;;;;;;;;;;;;;;;5072925;28;20528;-71
2022/03/20 03:40:49;;;;;;;16.80;9.02;;;;;;;;;;5071872;28;19916;-70
2022/03/20 03:43:17;;;;;;;15.90;9.52;;;;;;;;;;5072498;28;20037;-70
2022/03/20 03:45:44;;;;;;;17.13;9.43;;;;;;;;;;5071939;28;20044;-70
2022/03/20 03:48:10;;;;;;;19.13;9.30;;;;;;;;;;5071653;28;20426;-70
2022/03/20 03:50:37;;;;;;;16.50;9.30;;;;;;;;;;5072266;28;20040;-70
2022/03/20 03:53:04;;;;;;;19.17;10.35;;;;;;;;;;5072438;28;20033;-70
2022/03/20 03:55:31;;;;;;;17.15;9.75;;;;;;;;;;5071566;28;20111;-70
2022/03/20 03:57:57;;;;;;;18.30;9.75;;;;;;;;;;5072084;28;20119;-70
2022/03/20 04:00:24;;;;;;;16.88;9.05;;;;;;;;;;5071793;28;20471;-70
2022/03/20 04:02:50;;;;;;;16.10;10.43;;;;;;;;;;5071424;28;20051;-70
2022/03/20 04:05:18;;;;;;;15.82;10.15;;;;;;;;;;5071832;28;20043;-71
2022/03/20 04:07:45;;;;;;;20.83;10.48;;;;;;;;;;5071787;28;20036;-71
2022/03/20 04:10:11;;;;;;;21.17;10.20;;;;;;;;;;5071351;28;20119;-71
2022/03/20 04:12:39;;;;;;;20.27;9.85;;;;;;;;;;5071950;28;20131;-71
2022/03/20 04:15:06;;;;;;;18.15;9.93;;;;;;;;;;5071904;28;20037;-71
2022/03/20 04:17:32;;;;;;;19.10;10.90;;;;;;;;;;5070641;28;20040;-71
2022/03/20 04:19:58;;;;;;;20.73;10.60;;;;;;;;;;5071732;28;20066;-71
2022/03/20 04:22:28;;;;;;;16.42;9.45;;;;;;;;;;5071569;28;20044;-71
2022/03/20 04:24:54;;;;;;;18.40;10.35;;;;;;;;;;5070785;28;20051;-71
2022/03/20 04:27:20;;;;;;;18.08;11.13;;;;;;;;;;5052277;28;20053;-71
2022/03/20 04:29:47;;;;;;;16.15;10.02;;;;;;;;;;5050041;28;20119;-71
2022/03/20 04:32:13;;;;;;;19.40;10.80;;;;;;;;;;5050896;28;20139;-71
2022/03/20 04:34:40;;;;;;;23.45;11.60;;;;;;;;;;5051596;28;20056;-71
2022/03/20 04:37:07;;;;;;;20.70;10.68;;;;;;;;;;5051612;28;20033;-71
2022/03/20 04:39:34;;;;;;;19.17;10.68;;;;;;;;;;5049602;28;20040;-71
2022/03/20 04:42:00;;;;;;;18.98;11.77;;;;;;;;;;5049826;28;20049;-71
2022/03/20 04:44:26;;;;;;;21.42;11.13;;;;;;;;;;5049943;28;20380;-71
2022/03/20 04:46:53;;;;;;;24.08;11.25;;;;;;;;;;5050629;28;20045;-71
2022/03/20 04:58:29;;;;;;;20.92;11.88;;;;;;;;;;5083273;28;20041;-71
2022/03/20 05:00:23;;;;;;;19.00;11.35;;;;;;;;;;5051216;28;20045;-71
2022/03/20 05:02:49;;;;;;;20.20;11.38;;;;;;;;;;5049328;28;20095;-71
2022/03/20 05:05:16;;;;;;;19.50;11.77;;;;;;;;;;5051029;28;20041;-71
2022/03/20 05:07:42;;;;;;;26.48;13.15;;;;;;;;;;5051234;28;20052;-71
2022/03/20 05:15:40;;;;;;;18.45;11.48;;;;;;;;;;5051150;28;20041;-71
2022/03/20 05:18:07;;;;;;;22.80;12.60;;;;;;;;;;5050618;28;20478;-71
2022/03/20 05:20:33;;;;;;;25.15;12.48;;;;;;;;;;5049664;28;20049;-71
2022/03/20 05:23:00;;;;;;;21.40;12.60;;;;;;;;;;5049626;28;20152;-71
2022/03/20 05:25:29;;;;;;;20.90;12.93;;;;;;;;;;5053878;28;20463;-71
2022/03/20 05:27:56;;;;;;;19.98;13.07;;;;;;;;;;5071038;28;20383;-71
2022/03/20 05:30:22;;;;;;;24.90;13.10;;;;;;;;;;5073104;28;20509;-71
2022/03/20 05:32:48;;;;;;;22.30;12.68;;;;;;;;;;5072868;28;20403;-71
2022/03/20 05:35:18;;;;;;;23.90;12.55;;;;;;;;;;5075022;28;20187;-70
2022/03/20 05:37:44;;;;;;;22.33;12.75;;;;;;;;;;5073529;28;20455;-70
2022/03/20 05:40:11;;;;;;;19.02;11.85;;;;;;;;;;5074134;28;20387;-70
2022/03/20 05:42:37;;;;;;;22.27;12.70;;;;;;;;;;5073104;28;20113;-70
2022/03/20 05:45:03;;;;;;;25.92;13.50;;;;;;;;;;5074716;28;20060;-70
2022/03/20 05:47:31;;;;;;;23.92;13.93;;;;;;;;;;5073938;28;20044;-70
2022/03/20 05:50:00;;;;;;;24.30;13.00;;;;;;;;;;5074378;28;20047;-70
2022/03/20 05:52:27;;;;;;;20.10;13.02;;;;;;;;;;5106820;28;20356;-70
2022/03/20 05:54:53;;;;;;;21.17;13.18;;;;;;;;;;5106369;28;20083;-70
2022/03/20 06:00:04;;;;;;;22.73;13.68;;;;;;;;;;5074401;28;20044;-70
2022/03/20 06:02:30;;;;;;;20.52;12.68;;;;;;;;;;5073709;28;20147;-70
2022/03/20 06:04:56;;;;;;;24.55;13.65;;;;;;;;;;5074370;28;20174;-70
2022/03/20 06:07:22;;;;;;;22.02;13.20;;;;;;;;;;5072925;28;20127;-70
2022/03/20 06:09:48;;;;;;;27.35;15.05;;;;;;;;;;5073681;28;20041;-70
2022/03/20 06:12:15;;;;;;;23.55;13.82;;;;;;;;;;5074167;28;20044;-70
2022/03/20 06:14:41;;;;;;;23.05;13.20;;;;;;;;;;5074380;28;20510;-70
2022/03/20 06:17:09;;;;;;;26.33;14.00;;;;;;;;;;5073595;28;20313;-70
2022/03/20 06:19:36;;;;;;;24.00;14.15;;;;;;;;;;5072569;28;20052;-70
2022/03/20 06:22:02;;;;;;;25.92;14.95;;;;;;;;;;5073552;28;20151;-70
2022/03/20 06:24:29;;;;;;;24.42;14.27;;;;;;;;;;5071912;28;20535;-70
2022/03/20 06:26:54;;;;;;;25.27;13.48;;;;;;;;;;5058158;28;20123;-70
2022/03/20 06:29:20;;;;;;;22.88;13.88;;;;;;;;;;5052100;28;20814;-70
2022/03/20 06:31:49;;;;;;;24.42;14.43;;;;;;;;;;5052949;28;20052;-71
2022/03/20 06:34:15;;;;;;;21.80;14.30;;;;;;;;;;5052340;28;20112;-71
2022/03/20 06:36:41;;;;;;;24.67;14.30;;;;;;;;;;5053306;28;20391;-71
2022/03/20 06:39:07;;;;;;;26.02;14.45;;;;;;;;;;5052961;28;20524;-71
2022/03/20 06:41:33;;;;;;;25.52;14.23;;;;;;;;;;5051611;28;20124;-71
2022/03/20 06:44:00;;;;;;;24.33;14.82;;;;;;;;;;5053649;28;20049;-71
2022/03/20 06:46:28;;;;;;;25.80;15.23;;;;;;;;;;5051294;28;20045;-71
2022/03/20 06:48:54;;;;;;;24.63;14.77;;;;;;;;;;5053338;28;20123;-71
2022/03/20 06:51:22;;;;;;;29.15;14.93;;;;;;;;;;5053205;28;20041;-71
2022/03/20 06:53:48;;;;;;;26.20;14.43;;;;;;;;;;5052908;28;20490;-71
2022/03/20 06:56:14;;;;;;;22.95;13.88;;;;;;;;;;5053289;28;20041;-71
2022/03/20 06:58:40;;;;;;;28.42;15.73;;;;;;;;;;5053082;28;20807;-71
2022/03/20 07:01:08;;;;;;;23.77;14.93;;;;;;;;;;5052736;28;20487;-71
2022/03/20 07:03:34;;;;;;;26.33;15.02;;;;;;;;;;5053139;28;20049;-70
2022/03/20 07:06:00;;;;;;;23.75;14.85;;;;;;;;;;5053006;28;20033;-70
2022/03/20 07:08:28;;;;;;;26.75;14.45;;;;;;;;;;5052456;28;20029;-70
2022/03/20 07:10:54;;;;;;;29.55;14.68;;;;;;;;;;5051398;28;20400;-70
2022/03/20 07:16:05;;;;;;;26.77;14.85;;;;;;;;;;5052201;28;20045;-70
2022/03/20 07:18:31;;;;;;;29.20;15.23;;;;;;;;;;5052601;28;20079;-70
2022/03/20 07:20:58;;;;;;;26.85;15.40;;;;;;;;;;5051570;28;20053;-70
2022/03/20 07:23:24;;;;;;;27.10;15.32;;;;;;;;;;5052257;28;20037;-70
2022/03/20 07:31:20;;;;;;;30.77;15.45;;;;;;;;;;5104022;28;20128;-70
2022/03/20 07:33:48;;;;;;;27.02;15.52;;;;;;;;;;5072555;28;20562;-70
2022/03/20 07:36:14;;;;;;;28.52;15.50;;;;;;;;;;5104840;28;20075;-70
2022/03/20 07:38:40;;;;;;;29.20;15.13;;;;;;;;;;5070295;28;20098;-70
2022/03/20 07:41:06;;;;;;;25.52;15.73;;;;;;;;;;5072102;28;20344;-70
2022/03/20 07:43:32;;;;;;;24.50;15.95;;;;;;;;;;5072043;28;20048;-70
2022/03/20 07:45:58;;;;;;;29.50;15.43;;;;;;;;;;5071354;28;20077;-70
2022/03/20 07:48:25;;;;;;;26.65;14.80;;;;;;;;;;5072220;28;20489;-70
2022/03/20 07:50:51;;;;;;;27.80;15.48;;;;;;;;;;5072202;28;20483;-71
2022/03/20 07:53:17;;;;;;;26.30;14.52;;;;;;;;;;5069289;28;20040;-71
2022/03/20 07:55:46;;;;;;;27.98;15.00;;;;;;;;;;5070553;28;20056;-71
2022/03/20 07:58:16;;;;;;;27.83;15.70;;;;;;;;;;5070529;28;20117;-71
2022/03/20 08:00:42;;;;;;;28.65;16.13;;;;;;;;;;5069901;28;20509;-71
2022/03/20 08:03:08;;;;;;;25.73;15.35;;;;;;;;;;5104425;28;20041;-71
2022/03/20 08:05:34;;;;;;;25.00;14.90;;;;;;;;;;5072005;28;20071;-71
2022/03/20 08:08:04;;;;;;;25.67;14.82;;;;;;;;;;5069616;28;20747;-71
2022/03/20 08:10:30;;;;;;;31.98;15.88;;;;;;;;;;5071652;28;20040;-71
2022/03/20 08:12:56;;;;;;;26.52;15.25;;;;;;;;;;5071974;28;20043;-71
2022/03/20 08:15:23;;;;;;;27.63;15.63;;;;;;;;;;5069603;28;20055;-71
2022/03/20 08:17:50;;;;;;;28.38;16.10;;;;;;;;;;5071367;28;20043;-71
2022/03/20 08:20:16;;;;;;;25.83;15.70;;;;;;;;;;5071422;28;20044;-71
2022/03/20 08:22:42;;;;;;;27.95;16.27;;;;;;;;;;5070901;28;20045;-71
2022/03/20 08:25:10;;;;;;;22.98;16.02;;;;;;;;;;5071629;28;20051;-71
2022/03/20 08:27:46;;;;;;;26.35;15.48;;;;;;;;;;5071636;28;20047;-71
2022/03/20 08:30:15;;;;;;;26.83;16.85;;;;;;;;;;5070443;28;20053;-71
2022/03/20 08:32:41;;;;;;;30.27;16.55;;;;;;;;;;5071415;28;20127;-71
2022/03/20 08:35:07;;;;;;;26.48;15.40;;;;;;;;;;5071423;28;20048;-71
2022/03/20 08:37:35;;;;;;;28.05;16.23;;;;;;;;;;5070919;28;20036;-71
2022/03/20 08:40:01;;;;;;;28.20;16.27;;;;;;;;;;5069813;28;20040;-71
2022/03/20 08:42:27;;;;;;;28.50;16.30;;;;;;;;;;5071291;28;20040;-71
2022/03/20 08:44:53;;;;;;;29.40;17.05;;;;;;;;;;5070971;28;20471;-71
2022/03/20 08:47:20;;;;;;;29.08;16.02;;;;;;;;;;5071498;28;20051;-71
2022/03/20 08:49:46;;;;;;;27.80;16.95;;;;;;;;;;5070311;28;20044;-71
2022/03/20 08:52:12;;;;;;;30.77;16.88;;;;;;;;;;5070638;28;20044;-71
2022/03/20 08:54:38;;;;;;;25.05;16.45;;;;;;;;;;5071369;28;20502;-71
2022/03/20 08:57:06;;;;;;;28.15;15.85;;;;;;;;;;5069835;28;20079;-71
2022/03/20 08:59:32;;;;;;;27.80;16.63;;;;;;;;;;5070676;28;20076;-71
2022/03/20 09:01:58;;;;;;;28.90;16.70;;;;;;;;;;5071407;28;20431;-71
2022/03/20 09:04:24;;;;;;;27.90;17.13;;;;;;;;;;5072822;28;20056;-71
2022/03/20 09:06:50;;;;;;;29.15;17.38;;;;;;;;;;5073566;28;20097;-71
2022/03/20 09:09:17;;;;;;;29.63;16.35;;;;;;;;;;5075535;28;20059;-71
2022/03/20 09:11:45;;;;;;;30.10;16.25;;;;;;;;;;5075346;28;20053;-71
2022/03/20 09:14:11;;;;;;;30.25;18.52;;;;;;;;;;5074682;28;20147;-71
2022/03/20 09:19:22;;;;;;;28.17;17.60;;;;;;;;;;5073700;28;20093;-71
2022/03/20 09:21:48;;;;;;;29.90;17.55;;;;;;;;;;5074312;28;20078;-71
2022/03/20 09:24:15;;;;;;;29.55;17.92;;;;;;;;;;5075181;28;20673;-71
2022/03/20 09:26:42;;;;;;;29.17;17.17;;;;;;;;;;5074880;28;20059;-71
2022/03/20 09:29:08;;;;;;;30.38;17.50;;;;;;;;;;5074235;28;20399;-71
2022/03/20 09:31:36;;;;;;;32.80;18.23;;;;;;;;;;5074929;28;20475;-71
2022/03/20 09:34:03;;;;;;;28.90;16.63;;;;;;;;;;5074926;28;20127;-71
2022/03/20 09:36:29;;;;;;;30.70;18.65;;;;;;;;;;5074154;28;20524;-71
2022/03/20 09:38:56;;;;;;;29.00;18.48;;;;;;;;;;5074777;28;20506;-71
2022/03/20 09:41:30;;;;;;;30.58;18.17;;;;;;;;;;5074708;28;20063;-71
2022/03/20 09:43:56;;;;;;;31.75;18.80;;;;;;;;;;5072864;28;20491;-71
2022/03/20 09:46:22;;;;;;;32.15;19.02;;;;;;;;;;5074667;28;20438;-71
2022/03/20 09:48:48;;;;;;;32.65;18.77;;;;;;;;;;5074643;28;20138;-71
2022/03/20 09:51:14;;;;;;;28.67;17.58;;;;;;;;;;5073512;28;20040;-71
2022/03/20 09:53:41;;;;;;;28.52;18.95;;;;;;;;;;5074656;28;20072;-71
2022/03/20 09:56:10;;;;;;;30.85;18.58;;;;;;;;;;5107128;28;20082;-71
2022/03/20 09:58:36;;;;;;;35.45;19.38;;;;;;;;;;5073901;28;20691;-71
2022/03/20 10:01:02;;;;;;;30.40;18.58;;;;;;;;;;5074372;28;20505;-71
2022/03/20 10:03:28;;;;;;;30.48;18.88;;;;;;;;;;5074487;28;20036;-71
2022/03/20 10:06:17;;;;;;;34.97;19.40;;;;;;;;;;5073625;28;20036;-71
2022/03/20 10:08:55;;;;;;;30.05;18.52;;;;;;;;;;5074470;28;20052;-71
2022/03/20 10:11:22;;;;;;;29.83;18.73;;;;;;;;;;5074293;28;20047;-71
2022/03/20 10:14:08;;;;;;;31.75;19.67;;;;;;;;;;5073672;28;20140;-71
2022/03/20 10:16:34;;;;;;;34.50;20.90;;;;;;;;;;5105620;28;20097;-71
2022/03/20 10:19:00;;;;;;;31.55;19.02;;;;;;;;;;5074063;28;20127;-71
2022/03/20 10:21:46;;;;;;;32.30;19.85;;;;;;;;;;5073271;28;20048;-71
2022/03/20 10:24:19;;;;;;;30.00;19.42;;;;;;;;;;5074199;28;20407;-71
2022/03/20 10:26:45;;;;;;;31.38;19.40;;;;;;;;;;5073752;28;20089;-71
2022/03/20 10:29:15;;;;;;;30.13;18.67;;;;;;;;;;5072976;28;20504;-71
2022/03/20 10:31:52;;;;;;;31.30;19.92;;;;;;;;;;5073834;28;20056;-71
2022/03/20 10:34:18;;;;;;;33.30;19.88;;;;;;;;;;5073781;28;20032;-71
2022/03/20 10:36:45;;;;;;;32.67;19.65;;;;;;;;;;5073442;28;20036;-71
2022/03/20 10:39:16;;;;;;;33.47;20.65;;;;;;;;;;5073661;28;20154;-71
2022/03/20 10:41:43;;;;;;;34.58;20.98;;;;;;;;;;5073259;28;20055;-71
2022/03/20 10:44:16;;;;;;;34.30;21.00;;;;;;;;;;5073187;28;20550;-71
2022/03/20 10:46:43;;;;;;;31.52;20.20;;;;;;;;;;5073632;28;20094;-72
2022/03/20 10:49:11;;;;;;;33.83;20.77;;;;;;;;;;5072992;28;20040;-71
2022/03/20 10:51:39;;;;;;;32.05;19.88;;;;;;;;;;5073423;28;20044;-71
2022/03/20 10:54:15;;;;;;;36.60;20.90;;;;;;;;;;5073336;28;20112;-71
2022/03/20 10:57:08;;;;;;;30.85;20.38;;;;;;;;;;5072663;28;20048;-71
2022/03/20 10:59:34;;;;;;;30.70;19.92;;;;;;;;;;5072036;28;20391;-71
2022/03/20 11:02:00;;;;;;;33.63;21.50;;;;;;;;;;5071778;28;20048;-71
2022/03/20 11:04:28;;;;;;;32.55;20.88;;;;;;;;;;5071382;28;20527;-71
2022/03/20 11:06:54;;;;;;;33.63;20.83;;;;;;;;;;5073086;28;20340;-71
2022/03/20 11:09:20;;;;;;;39.33;22.23;;;;;;;;;;5071937;28;20547;-71
2022/03/20 11:11:51;;;;;;;32.90;20.92;;;;;;;;;;5072491;28;20060;-71
2022/03/20 11:14:21;;;;;;;32.75;21.23;;;;;;;;;;5073090;28;20417;-71
2022/03/20 11:16:49;;;;;;;33.63;20.48;;;;;;;;;;5072439;28;20041;-71
2022/03/20 11:19:17;;;;;;;34.40;20.60;;;;;;;;;;5072326;28;20051;-71
2022/03/20 11:21:47;;;;;;;34.35;20.92;;;;;;;;;;5072840;28;20078;-71
2022/03/20 11:24:16;;;;;;;33.35;21.33;;;;;;;;;;5072933;28;20045;-71
2022/03/20 11:26:43;;;;;;;33.53;21.48;;;;;;;;;;5071610;28;20086;-71
2022/03/20 11:29:11;;;;;;;34.67;21.63;;;;;;;;;;5072619;28;20037;-71
2022/03/20 11:31:38;;;;;;;31.80;20.77;;;;;;;;;;5072681;28;20411;-71
2022/03/20 11:34:06;;;;;;;32.60;20.85;;;;;;;;;;5104746;28;20044;-71
2022/03/20 11:36:32;;;;;;;33.60;21.13;;;;;;;;;;5071294;28;20058;-71
2022/03/20 11:39:09;;;;;;;37.25;22.55;;;;;;;;;;5104914;28;20041;-71
2022/03/20 11:41:35;;;;;;;33.78;21.33;;;;;;;;;;5104450;28;20577;-71
2022/03/20 11:44:20;;;;;;;32.10;20.52;;;;;;;;;;5071261;28;20064;-71
2022/03/20 11:47:05;;;;;;;33.47;20.67;;;;;;;;;;5070883;28;20819;-71
2022/03/20 11:49:32;;;;;;;34.03;21.05;;;;;;;;;;5071701;28;20040;-71
2022/03/20 11:52:07;;;;;;;32.53;21.65;;;;;;;;;;5104904;28;20050;-71
2022/03/20 11:54:42;;;;;;;32.72;21.35;;;;;;;;;;5072315;28;20044;-71
2022/03/20 11:57:27;;;;;;;34.05;21.05;;;;;;;;;;5071180;28;20049;-71
2022/03/20 11:59:57;;;;;;;33.83;21.52;;;;;;;;;;5072125;28;20044;-71
2022/03/20 12:02:28;;;;;;;34.40;21.92;;;;;;;;;;5071708;28;20084;-72
2022/03/20 12:05:00;;;;;;;34.60;22.40;;;;;;;;;;5069724;28;20072;-72
2022/03/20 12:07:32;;;;;;;35.67;21.20;;;;;;;;;;5072031;28;20040;-72
2022/03/20 12:10:10;;;;;;;33.03;21.20;;;;;;;;;;5072171;28;20106;-72
2022/03/20 12:12:37;;;;;;;34.03;21.83;;;;;;;;;;5071206;28;20094;-72
2022/03/20 12:15:10;;;;;;;30.02;21.38;;;;;;;;;;5071681;28;20044;-72
2022/03/20 12:17:56;;;;;;;33.70;21.77;;;;;;;;;;5070286;28;20040;-72
2022/03/20 12:20:41;;;;;;;34.25;21.88;;;;;;;;;;5071270;28;20449;-72
2022/03/20 12:23:26;;;;;;;35.00;21.67;;;;;;;;;;5071900;28;20044;-72
2022/03/20 12:25:52;;;;;;;33.97;22.38;;;;;;;;;;5063965;28;20037;-72
2022/03/20 12:28:31;;;;;;;29.45;20.23;;;;;;;;;;5051398;28;20045;-72
2022/03/20 12:30:57;;;;;;;33.03;22.10;;;;;;;;;;5051185;28;20504;-72
2022/03/20 12:33:26;;;;;;;32.38;21.95;;;;;;;;;;5051064;28;20051;-72
2022/03/20 12:35:53;;;;;;;34.50;21.15;;;;;;;;;;5051398;28;20041;-72
2022/03/20 12:38:34;;;;;;;30.98;21.67;;;;;;;;;;5051253;28;20068;-72
2022/03/20 12:41:10;;;;;;;32.55;21.15;;;;;;;;;;5050690;28;20041;-72
2022/03/20 12:43:36;;;;;;;36.40;20.85;;;;;;;;;;5051659;28;20079;-72
2022/03/20 12:46:02;;;;;;;37.30;21.42;;;;;;;;;;5051346;28;20045;-72
2022/03/20 12:48:32;;;;;;;32.05;22.23;;;;;;;;;;5049770;28;20041;-72
2022/03/20 12:50:59;;;;;;;35.53;23.05;;;;;;;;;;5051277;28;20383;-72
2022/03/20 12:53:36;;;;;;;32.65;22.23;;;;;;;;;;5050201;28;20511;-72
2022/03/20 12:56:08;;;;;;;38.33;21.30;;;;;;;;;;5050149;28;20044;-72
2022/03/20 12:58:34;;;;;;;31.17;21.23;;;;;;;;;;5051628;28;20040;-72
2022/03/20 13:01:06;;;;;;;33.17;22.67;;;;;;;;;;5050056;28;20362;-72
2022/03/20 13:03:33;;;;;;;33.25;21.17;;;;;;;;;;5050465;28;20037;-72
2022/03/20 13:06:00;;;;;;;37.33;22.27;;;;;;;;;;5083771;28;20925;-72
2022/03/20 13:08:30;;;;;;;34.88;21.52;;;;;;;;;;5051405;28;20372;-72
2022/03/20 13:14:02;;;;;;;35.83;23.35;;;;;;;;;;5051066;28;20056;-72
2022/03/20 13:16:29;;;;;;;38.17;23.02;;;;;;;;;;5051064;28;20468;-72
2022/03/20 13:18:55;;;;;;;33.95;22.30;;;;;;;;;;5050281;28;20099;-72
2022/03/20 13:21:21;;;;;;;34.90;23.05;;;;;;;;;;5050006;28;20055;-72
2022/03/20 13:23:48;;;;;;;34.40;21.25;;;;;;;;;;5051291;28;20041;-72
2022/03/20 13:26:18;;;;;;;34.95;22.35;;;;;;;;;;5060177;28;20036;-72
2022/03/20 13:28:45;;;;;;;33.75;22.10;;;;;;;;;;5071086;28;20111;-72
2022/03/20 13:31:21;;;;;;;33.97;23.00;;;;;;;;;;5070630;28;20485;-72
2022/03/20 13:33:59;;;;;;;35.53;22.65;;;;;;;;;;5070595;28;20045;-72
2022/03/20 13:36:35;;;;;;;37.90;22.13;;;;;;;;;;5069515;28;20115;-72
2022/03/20 13:39:02;;;;;;;30.55;21.02;;;;;;;;;;5070974;28;20044;-72
2022/03/20 13:41:28;;;;;;;35.67;22.17;;;;;;;;;;5085681;28;20505;-72
2022/03/20 13:44:01;;;;;;;31.83;20.90;;;;;;;;;;5071084;28;20078;-72
2022/03/20 13:46:28;;;;;;;34.20;21.70;;;;;;;;;;5070813;28;20459;-72
2022/03/20 13:48:57;;;;;;;35.17;22.00;;;;;;;;;;5069915;28;20047;-72
2022/03/20 13:51:27;;;;;;;31.67;21.88;;;;;;;;;;5073323;28;20043;-72
2022/03/20 13:54:09;;;;;;;33.45;22.17;;;;;;;;;;5074471;28;20052;-72
2022/03/20 13:56:35;;;;;;;34.83;22.57;;;;;;;;;;5074258;28;20495;-72
2022/03/20 13:59:04;;;;;;;34.05;21.92;;;;;;;;;;5074475;28;20305;-72
2022/03/20 14:01:30;;;;;;;32.35;22.70;;;;;;;;;;5074292;28;20053;-72
2022/03/20 14:04:08;;;;;;;31.17;21.65;;;;;;;;;;5073995;28;20068;-72
2022/03/20 14:06:37;;;;;;;35.88;22.52;;;;;;;;;;5074235;28;20045;-72
2022/03/20 14:09:04;;;;;;;32.10;21.55;;;;;;;;;;5073582;28;20483;-72
2022/03/20 14:11:32;;;;;;;35.08;22.02;;;;;;;;;;5074048;28;20076;-72
2022/03/20 14:13:58;;;;;;;34.17;22.30;;;;;;;;;;5074185;28;20041;-72
2022/03/20 14:16:24;;;;;;;32.80;22.40;;;;;;;;;;5072088;28;20041;-72
2022/03/20 14:18:50;;;;;;;37.30;22.48;;;;;;;;;;5074177;28;20578;-72
2022/03/20 14:21:22;;;;;;;32.83;21.35;;;;;;;;;;5074079;28;20037;-72
2022/03/20 14:24:02;;;;;;;34.92;22.55;;;;;;;;;;5072217;28;20079;-72
2022/03/20 14:26:30;;;;;;;34.67;22.90;;;;;;;;;;5061831;28;20045;-72
2022/03/20 14:29:02;;;;;;;34.22;22.60;;;;;;;;;;5053969;28;20255;-72
2022/03/20 14:39:48;;;;;;;34.95;23.52;;;;;;;;;;5053090;28;20052;-72
2022/03/20 14:42:40;;;;;;;32.50;21.25;;;;;;;;;;5053542;28;20045;-72
2022/03/20 14:45:08;;;;;;;33.47;22.27;;;;;;;;;;5052286;28;20056;-72
2022/03/20 14:47:34;;;;;;;35.13;22.25;;;;;;;;;;5051403;28;20403;-71
2022/03/20 14:50:03;;;;;;;33.53;21.88;;;;;;;;;;5052287;28;20059;-71
2022/03/20 14:52:31;;;;;;;30.13;20.77;;;;;;;;;;5053127;28;20045;-71
2022/03/20 14:54:58;;;;;;;32.15;21.00;;;;;;;;;;5052527;28;20509;-71
2022/03/20 14:57:25;;;;;;;33.95;21.52;;;;;;;;;;5052978;28;20407;-71
2022/03/20 14:59:51;;;;;;;33.28;21.55;;;;;;;;;;5053343;28;20094;-71
2022/03/20 15:02:18;;;;;;;34.40;20.65;;;;;;;;;;5052473;28;20618;-71
2022/03/20 15:04:47;;;;;;;34.75;21.95;;;;;;;;;;5053222;28;20048;-71
2022/03/20 15:07:13;;;;;;;34.33;22.48;;;;;;;;;;5051801;28;20061;-71
2022/03/20 15:12:25;;;;;;;31.83;22.10;;;;;;;;;;5052998;28;20052;-71
2022/03/20 15:14:51;;;;;;;34.20;22.40;;;;;;;;;;5051887;28;20045;-71